createdAt,value
2023-04-06T00:02:20.513Z,13.47
2023-04-06T00:04:48.495Z,12.13
2023-04-06T00:07:16.364Z,13.40
2023-04-06T00:09:44.198Z,11.33
2023-04-06T00:12:13.430Z,12.03
2023-04-06T00:14:41.734Z,13.93
2023-04-06T00:17:09.949Z,10.80
2023-04-06T00:19:37.920Z,11.37
2023-04-06T00:22:05.935Z,11.00
2023-04-06T00:24:33.846Z,14.73
2023-04-06T00:27:02.169Z,12.00
2023-04-06T00:29:31.347Z,17.20
2023-04-06T00:31:59.217Z,12.57
2023-04-06T00:34:27.117Z,11.37
2023-04-06T00:36:54.969Z,11.07
2023-04-06T00:39:23.004Z,12.10
2023-04-06T00:41:53.339Z,9.33
2023-04-06T00:44:21.545Z,11.97
2023-04-06T00:46:50.875Z,15.33
2023-04-06T00:49:19.007Z,9.93
2023-04-06T00:51:46.851Z,11.67
2023-04-06T00:54:14.718Z,17.00
2023-04-06T00:56:44.213Z,14.13
2023-04-06T00:59:13.472Z,11.27
2023-04-06T01:01:41.394Z,13.03
2023-04-06T01:04:10.848Z,18.50
2023-04-06T01:06:38.720Z,11.13
2023-04-06T01:09:06.870Z,13.10
2023-04-06T01:11:34.959Z,13.30
2023-04-06T01:14:02.786Z,10.83
2023-04-06T01:16:30.900Z,10.43
2023-04-06T01:18:58.797Z,13.30
2023-04-06T01:21:28.147Z,13.47
2023-04-06T01:23:57.343Z,12.33
2023-04-06T01:26:25.167Z,11.13
2023-04-06T01:28:53.053Z,10.90
2023-04-06T01:31:21.253Z,12.00
2023-04-06T01:33:49.287Z,9.07
2023-04-06T01:36:17.241Z,12.37
2023-04-06T01:38:45.569Z,11.70
2023-04-06T01:41:14.882Z,13.80
2023-04-06T01:43:42.711Z,7.97
2023-04-06T01:46:10.644Z,10.20
2023-04-06T01:48:38.491Z,8.80
2023-04-06T01:51:07.080Z,11.23
2023-04-06T01:53:34.887Z,18.03
2023-04-06T01:56:03.007Z,10.90
2023-04-06T01:58:32.191Z,9.30
2023-04-06T02:01:00.135Z,11.17
2023-04-06T02:03:28.097Z,13.30
2023-04-06T02:05:56.018Z,8.13
2023-04-06T02:08:23.840Z,12.57
2023-04-06T02:10:51.688Z,7.53
2023-04-06T02:13:19.516Z,10.70
2023-04-06T02:15:48.764Z,13.63
2023-04-06T02:18:18.489Z,11.80
2023-04-06T02:20:46.620Z,9.43
2023-04-06T02:23:14.425Z,10.90
2023-04-06T02:25:42.611Z,12.87
2023-04-06T02:28:10.642Z,10.60
2023-04-06T02:30:38.479Z,13.10
2023-04-06T02:33:07.881Z,8.40
2023-04-06T02:35:35.976Z,8.80
2023-04-06T02:38:03.864Z,9.20
2023-04-06T02:40:31.704Z,13.07
2023-04-06T02:42:59.539Z,9.40
2023-04-06T02:45:27.383Z,9.43
2023-04-06T02:47:55.347Z,7.90
2023-04-06T02:50:24.536Z,10.80
2023-04-06T02:52:52.374Z,9.40
2023-04-06T02:55:22.388Z,8.87
2023-04-06T02:57:50.423Z,7.20
2023-04-06T03:00:18.843Z,7.93
2023-04-06T03:02:46.801Z,7.30
2023-04-06T03:05:14.741Z,9.77
2023-04-06T03:07:43.981Z,8.93
2023-04-06T03:10:12.009Z,9.37
2023-04-06T03:12:39.815Z,9.90
2023-04-06T03:15:08.590Z,6.77
2023-04-06T03:17:36.434Z,8.10
2023-04-06T03:20:04.615Z,8.97
2023-04-06T03:22:32.446Z,8.10
2023-04-06T03:25:03.561Z,8.50
2023-04-06T03:27:31.818Z,8.80
2023-04-06T03:29:59.685Z,7.00
2023-04-06T03:32:27.591Z,8.60
2023-04-06T03:34:55.491Z,9.00
2023-04-06T03:37:23.444Z,11.03
2023-04-06T03:39:51.457Z,8.40
2023-04-06T03:42:20.788Z,8.07
2023-04-06T03:44:48.638Z,7.50
2023-04-06T03:47:16.549Z,8.80
2023-04-06T03:49:44.554Z,9.40
2023-04-06T03:52:12.417Z,11.30
2023-04-06T03:54:40.272Z,11.67
2023-04-06T03:57:08.124Z,9.47
2023-04-06T03:59:37.421Z,9.53
2023-04-06T04:02:05.520Z,8.53
2023-04-06T04:04:33.430Z,9.87
2023-04-06T04:07:01.423Z,12.47
2023-04-06T04:09:29.857Z,8.20
2023-04-06T04:11:57.857Z,9.60
2023-04-06T04:14:26.354Z,12.80
2023-04-06T04:16:55.710Z,10.57
2023-04-06T04:19:23.609Z,8.30
2023-04-06T04:21:51.486Z,12.07
2023-04-06T04:24:19.345Z,12.00
2023-04-06T04:26:47.216Z,14.80
2023-04-06T04:29:15.320Z,10.87
2023-04-06T04:31:43.344Z,12.90
2023-04-06T04:34:12.666Z,7.33
2023-04-06T04:36:42.440Z,8.77
2023-04-06T04:39:10.382Z,10.00
2023-04-06T04:41:38.391Z,8.77
2023-04-06T04:44:06.405Z,13.70
2023-04-06T04:46:34.297Z,8.13
2023-04-06T04:49:02.124Z,8.60
2023-04-06T04:51:32.133Z,11.43
2023-04-06T04:54:01.115Z,10.13
2023-04-06T04:56:30.569Z,8.23
2023-04-06T04:58:58.525Z,10.80
2023-04-06T05:01:26.492Z,18.00
2023-04-06T05:03:54.421Z,17.40
2023-04-06T05:06:22.314Z,7.80
2023-04-06T05:08:51.511Z,12.07
2023-04-06T05:11:19.478Z,7.27
2023-04-06T05:13:47.389Z,8.77
2023-04-06T05:16:15.476Z,10.90
2023-04-06T05:18:43.439Z,9.67
2023-04-06T05:21:12.585Z,8.60
2023-04-06T05:23:40.471Z,9.07
2023-04-06T05:26:09.840Z,8.67
2023-04-06T05:28:37.800Z,10.23
2023-04-06T05:31:06.029Z,13.80
2023-04-06T05:33:35.615Z,11.70
2023-04-06T05:36:04.661Z,7.53
2023-04-06T05:38:34.251Z,9.00
2023-04-06T05:41:02.197Z,6.20
2023-04-06T05:43:31.423Z,11.83
2023-04-06T05:45:59.332Z,10.30
2023-04-06T05:48:27.181Z,13.93
2023-04-06T05:50:55.079Z,8.60
2023-04-06T05:53:23.094Z,9.20
2023-04-06T05:55:50.901Z,10.47
2023-04-06T05:58:19.117Z,11.83
2023-04-06T06:00:48.300Z,9.83
2023-04-06T06:03:16.882Z,10.73
2023-04-06T06:05:44.800Z,10.43
2023-04-06T06:08:12.698Z,10.23
2023-04-06T06:10:41.352Z,11.70
2023-04-06T06:13:09.352Z,13.13
2023-04-06T06:15:37.254Z,11.50
2023-04-06T06:18:06.881Z,8.93
2023-04-06T06:20:34.847Z,11.20
2023-04-06T06:23:02.678Z,11.30
2023-04-06T06:25:31.719Z,8.43
2023-04-06T06:27:59.978Z,14.13
2023-04-06T06:30:28.041Z,8.63
2023-04-06T06:32:55.908Z,9.40
2023-04-06T06:35:25.206Z,15.97
2023-04-06T06:37:53.093Z,7.57
2023-04-06T06:40:24.604Z,8.93
2023-04-06T06:42:53.138Z,9.80
2023-04-06T06:45:21.212Z,10.27
2023-04-06T06:47:49.213Z,14.93
2023-04-06T06:50:17.266Z,12.90
2023-04-06T06:52:46.499Z,14.67
2023-04-06T06:55:14.408Z,11.90
2023-04-06T06:57:43.278Z,12.93
2023-04-06T07:00:14.071Z,10.17
2023-04-06T07:02:42.410Z,15.40
2023-04-06T07:05:26.267Z,19.67
2023-04-06T07:07:57.573Z,13.87
2023-04-06T07:10:25.637Z,16.00
2023-04-06T07:12:53.559Z,11.20
2023-04-06T07:15:21.430Z,11.80
2023-04-06T07:17:49.322Z,12.33
2023-04-06T07:20:17.446Z,14.87
2023-04-06T07:22:46.298Z,21.70
2023-04-06T07:25:15.885Z,12.70
2023-04-06T07:27:43.751Z,12.70
2023-04-06T07:30:12.205Z,15.03
2023-04-06T07:32:40.172Z,10.50
2023-04-06T07:35:08.473Z,15.43
2023-04-06T07:37:36.350Z,14.63
2023-04-06T07:40:04.253Z,13.47
2023-04-06T07:42:34.003Z,10.90
2023-04-06T07:45:02.001Z,17.03
2023-04-06T07:47:29.878Z,11.10
2023-04-06T07:49:57.940Z,11.60
2023-04-06T07:52:25.863Z,13.70
2023-04-06T07:54:53.739Z,12.17
2023-04-06T07:57:21.604Z,11.03
2023-04-06T07:59:50.869Z,8.60
2023-04-06T08:02:18.978Z,9.43
2023-04-06T08:04:47.022Z,9.70
2023-04-06T08:07:14.867Z,9.00
2023-04-06T08:09:42.731Z,11.20
2023-04-06T08:12:10.690Z,7.83
2023-04-06T08:14:38.527Z,8.63
2023-04-06T08:17:07.777Z,8.07
2023-04-06T08:19:35.612Z,7.57
2023-04-06T08:22:03.525Z,9.73
2023-04-06T08:24:33.182Z,8.53
2023-04-06T08:27:01.300Z,7.43
2023-04-06T08:29:29.230Z,7.43
2023-04-06T08:31:57.296Z,8.80
2023-04-06T08:34:26.559Z,9.67
2023-04-06T08:36:54.512Z,9.90
2023-04-06T08:39:26.143Z,9.40
2023-04-06T08:41:57.711Z,10.10
2023-04-06T08:44:26.085Z,10.73
2023-04-06T08:46:54.298Z,8.93
2023-04-06T08:49:23.132Z,8.40
2023-04-06T08:51:52.869Z,11.10
2023-04-06T08:54:20.988Z,12.27
2023-04-06T08:56:50.482Z,12.03
2023-04-06T08:59:19.187Z,13.77
2023-04-06T09:01:47.749Z,9.00
2023-04-06T09:04:16.685Z,10.10
2023-04-06T09:06:45.113Z,8.70
2023-04-06T09:09:14.561Z,8.90
2023-04-06T09:11:49.823Z,11.53
2023-04-06T09:14:18.583Z,9.67
2023-04-06T09:16:48.398Z,9.90
2023-04-06T09:19:16.255Z,9.90
2023-04-06T09:21:44.148Z,7.50
2023-04-06T09:24:12.314Z,11.50
2023-04-06T09:26:49.418Z,6.87
2023-04-06T09:29:28.275Z,10.30
2023-04-06T09:32:05.045Z,7.23
2023-04-06T09:34:33.285Z,9.20
2023-04-06T09:37:01.224Z,10.30
2023-04-06T09:39:29.087Z,8.37
2023-04-06T09:41:58.357Z,11.63
2023-04-06T09:44:26.941Z,9.43
2023-04-06T09:47:00.442Z,9.80
2023-04-06T09:49:32.311Z,9.57
2023-04-06T09:52:02.149Z,11.40
2023-04-06T09:54:32.352Z,8.93
2023-04-06T09:57:14.853Z,10.93
2023-04-06T09:59:50.644Z,12.60
2023-04-06T10:02:31.332Z,13.60
2023-04-06T10:05:04.448Z,12.60
2023-04-06T10:07:32.469Z,9.87
2023-04-06T10:10:02.578Z,12.93
2023-04-06T10:12:32.332Z,9.10
2023-04-06T10:15:00.909Z,12.27
2023-04-06T10:17:28.818Z,10.27
2023-04-06T10:20:04.697Z,9.13
2023-04-06T10:22:45.944Z,9.80
2023-04-06T10:25:14.320Z,13.20
2023-04-06T10:27:43.560Z,9.30
2023-04-06T10:30:11.913Z,9.73
2023-04-06T10:32:40.835Z,13.43
2023-04-06T10:35:10.646Z,12.37
2023-04-06T10:37:55.695Z,13.90
2023-04-06T10:40:27.456Z,8.53
2023-04-06T10:42:58.292Z,7.67
2023-04-06T10:45:27.755Z,10.97
2023-04-06T10:47:56.843Z,10.97
2023-04-06T10:50:25.911Z,10.97
2023-04-06T10:53:04.067Z,8.60
2023-04-06T10:55:32.768Z,12.00
2023-04-06T10:58:02.041Z,9.63
2023-04-06T11:00:39.694Z,10.90
2023-04-06T11:03:17.480Z,8.97
2023-04-06T11:05:48.193Z,13.00
2023-04-06T11:08:25.648Z,7.37
2023-04-06T11:10:53.515Z,13.90
2023-04-06T11:13:22.774Z,11.20
2023-04-06T11:15:50.818Z,11.37
2023-04-06T11:18:20.721Z,13.73
2023-04-06T11:20:50.303Z,9.77
2023-04-06T11:23:25.201Z,9.73
2023-04-06T11:25:53.593Z,10.00
2023-04-06T11:28:23.217Z,9.73
2023-04-06T11:30:51.382Z,10.47
2023-04-06T11:33:25.511Z,9.50
2023-04-06T11:35:53.366Z,8.53
2023-04-06T11:38:21.992Z,7.93
2023-04-06T11:40:55.311Z,7.57
2023-04-06T11:43:29.995Z,8.67
2023-04-06T11:46:04.750Z,8.07
2023-04-06T11:48:33.318Z,9.10
2023-04-06T11:51:02.025Z,8.97
2023-04-06T11:53:30.722Z,7.57
2023-04-06T11:56:00.628Z,8.67
2023-04-06T11:58:31.818Z,8.27
2023-04-06T12:01:05.868Z,8.73
2023-04-06T12:03:33.778Z,10.53
2023-04-06T12:06:01.843Z,7.87
2023-04-06T12:08:29.692Z,9.57
2023-04-06T12:10:57.592Z,6.57
2023-04-06T12:13:25.947Z,7.13
2023-04-06T12:15:55.390Z,9.07
2023-04-06T12:18:23.246Z,9.73
2023-04-06T12:20:53.291Z,8.43
2023-04-06T12:23:24.059Z,8.50
2023-04-06T12:25:52.474Z,10.40
2023-04-06T12:28:21.643Z,7.17
2023-04-06T12:30:49.571Z,9.03
2023-04-06T12:33:19.042Z,8.90
2023-04-06T12:35:47.019Z,9.30
2023-04-06T12:38:15.114Z,12.90
2023-04-06T12:40:42.937Z,7.97
2023-04-06T12:43:10.925Z,8.40
2023-04-06T12:45:38.747Z,7.63
2023-04-06T12:48:06.738Z,8.57
2023-04-06T12:50:36.257Z,8.53
2023-04-06T12:53:04.092Z,11.57
2023-04-06T12:55:35.116Z,8.20
2023-04-06T12:58:03.115Z,7.17
2023-04-06T13:00:32.122Z,8.83
2023-04-06T13:03:00.250Z,9.00
2023-04-06T13:05:29.945Z,8.27
2023-04-06T13:08:00.097Z,7.53
2023-04-06T13:10:28.761Z,7.33
2023-04-06T13:12:56.586Z,8.43
2023-04-06T13:15:24.486Z,7.47
2023-04-06T13:17:53.772Z,10.83
2023-04-06T13:20:23.030Z,8.07
2023-04-06T13:22:50.930Z,11.63
2023-04-06T13:25:21.001Z,10.47
2023-04-06T13:27:49.664Z,7.23
2023-04-06T13:30:18.199Z,7.57
2023-04-06T13:32:46.258Z,9.27
2023-04-06T13:35:14.185Z,8.00
2023-04-06T13:37:42.045Z,8.63
2023-04-06T13:40:11.000Z,7.90
2023-04-06T13:42:41.628Z,8.27
2023-04-06T13:45:10.780Z,8.07
2023-04-06T13:47:38.734Z,10.03
2023-04-06T13:50:07.864Z,8.50
2023-04-06T13:52:37.037Z,7.63
2023-04-06T13:55:05.471Z,7.53
2023-04-06T13:57:33.287Z,6.90
2023-04-06T14:00:05.073Z,7.47
2023-04-06T14:02:35.326Z,13.90
2023-04-06T14:05:04.220Z,7.57
2023-04-06T14:07:39.415Z,8.10
2023-04-06T14:10:14.510Z,7.80
2023-04-06T14:12:42.935Z,8.20
2023-04-06T14:15:13.532Z,5.90
2023-04-06T14:17:41.432Z,9.10
2023-04-06T14:20:14.841Z,8.30
2023-04-06T14:22:43.310Z,9.63
2023-04-06T14:25:11.923Z,8.57
2023-04-06T14:27:39.734Z,9.03
2023-04-06T14:30:09.073Z,8.70
2023-04-06T14:32:38.373Z,5.47
2023-04-06T14:35:07.841Z,6.00
2023-04-06T14:37:36.011Z,6.10
2023-04-06T14:40:04.121Z,6.43
2023-04-06T14:42:32.398Z,5.03
2023-04-06T14:45:00.182Z,6.27
2023-04-06T14:47:28.220Z,5.50
2023-04-06T14:49:58.508Z,5.30
2023-04-06T14:52:26.415Z,6.67
2023-04-06T14:54:54.150Z,5.37
2023-04-06T14:57:21.924Z,5.80
2023-04-06T14:59:50.192Z,6.60
2023-04-06T15:02:18.142Z,8.20
2023-04-06T15:04:46.070Z,8.20
2023-04-06T15:07:15.604Z,11.03
2023-04-06T15:09:43.458Z,7.70
2023-04-06T15:12:11.276Z,5.90
2023-04-06T15:14:39.164Z,7.17
2023-04-06T15:17:07.190Z,9.80
2023-04-06T15:19:34.981Z,7.00
2023-04-06T15:22:02.831Z,9.67
2023-04-06T15:24:32.013Z,7.10
2023-04-06T15:26:59.903Z,5.80
2023-04-06T15:29:27.767Z,8.77
2023-04-06T15:31:56.030Z,6.63
2023-04-06T15:34:23.798Z,7.00
2023-04-06T15:36:52.363Z,7.57
2023-04-06T15:39:20.482Z,5.70
2023-04-06T15:41:49.621Z,7.13
2023-04-06T15:44:18.326Z,9.10
2023-04-06T15:46:46.116Z,4.80
2023-04-06T15:49:13.970Z,13.83
2023-04-06T15:51:42.976Z,7.00
2023-04-06T15:54:10.772Z,5.10
2023-04-06T15:56:38.511Z,14.33
2023-04-06T15:59:07.632Z,10.20
2023-04-06T16:01:35.705Z,6.67
2023-04-06T16:04:04.079Z,8.53
2023-04-06T16:06:32.506Z,6.70
2023-04-06T16:09:00.322Z,7.60
2023-04-06T16:11:28.150Z,7.10
2023-04-06T16:13:56.019Z,6.20
2023-04-06T16:16:25.406Z,5.17
2023-04-06T16:18:53.205Z,5.50
2023-04-06T16:21:21.069Z,5.70
2023-04-06T16:23:48.931Z,6.70
2023-04-06T16:26:18.035Z,6.10
2023-04-06T16:28:47.232Z,5.77
2023-04-06T16:31:19.801Z,5.80
2023-04-06T16:33:49.176Z,7.10
2023-04-06T16:36:23.093Z,7.57
2023-04-06T16:38:51.285Z,11.90
2023-04-06T16:41:19.176Z,5.40
2023-04-06T16:43:47.558Z,5.87
2023-04-06T16:46:16.159Z,5.80
2023-04-06T16:48:43.946Z,6.53
2023-04-06T16:51:13.130Z,6.60
2023-04-06T16:53:40.905Z,8.00
2023-04-06T16:58:42.430Z,6.07
2023-04-06T17:01:18.260Z,6.80
2023-04-06T17:03:47.169Z,5.83
2023-04-06T17:06:16.462Z,6.63
2023-04-06T17:08:45.338Z,7.40
2023-04-06T17:11:15.313Z,6.67
2023-04-06T17:13:44.569Z,5.53
2023-04-06T17:16:13.143Z,5.30
2023-04-06T17:18:41.086Z,6.33
2023-04-06T17:21:10.116Z,6.70
2023-04-06T17:23:39.223Z,6.60
2023-04-06T17:26:07.617Z,6.93
2023-04-06T17:28:35.649Z,7.03
2023-04-06T17:31:03.548Z,8.83
2023-04-06T17:33:32.512Z,7.40
2023-04-06T17:36:00.325Z,11.20
2023-04-06T17:38:28.218Z,8.90
2023-04-06T17:40:57.439Z,7.43
2023-04-06T17:43:25.558Z,7.90
2023-04-06T17:45:53.450Z,8.63
2023-04-06T17:48:21.396Z,10.10
2023-04-06T17:50:49.237Z,10.33
2023-04-06T17:53:20.165Z,7.37
2023-04-06T17:55:48.201Z,8.27
2023-04-06T17:58:17.326Z,10.77
2023-04-06T18:00:45.371Z,7.27
2023-04-06T18:03:13.154Z,7.67
2023-04-06T18:05:41.389Z,6.67
2023-04-06T18:08:09.155Z,8.13
2023-04-06T18:10:39.792Z,8.43
2023-04-06T18:13:08.113Z,15.03
2023-04-06T18:15:38.167Z,6.53
2023-04-06T18:18:07.327Z,9.00
2023-04-06T18:20:40.101Z,6.63
2023-04-06T18:23:07.917Z,7.47
2023-04-06T18:25:39.348Z,8.83
2023-04-06T18:28:07.620Z,7.30
2023-04-06T18:30:36.993Z,8.07
2023-04-06T18:33:06.367Z,8.60
2023-04-06T18:35:34.237Z,12.50
2023-04-06T18:38:01.997Z,11.10
2023-04-06T18:40:34.122Z,15.60
2023-04-06T18:43:02.906Z,9.37
2023-04-06T18:45:33.169Z,12.50
2023-04-06T18:48:02.905Z,11.30
2023-04-06T18:50:30.784Z,15.80
2023-04-06T18:52:58.522Z,8.73
2023-04-06T18:55:27.008Z,9.73
2023-04-06T18:57:55.392Z,12.87
2023-04-06T19:00:23.133Z,10.80
2023-04-06T19:02:51.237Z,11.57
2023-04-06T19:05:22.094Z,20.87
2023-04-06T19:07:52.494Z,19.97
2023-04-06T19:10:21.003Z,15.90
2023-04-06T19:12:48.848Z,16.60
2023-04-06T19:15:17.113Z,18.97
2023-04-06T19:17:44.965Z,20.17
2023-04-06T19:20:13.074Z,20.60
2023-04-06T19:22:42.379Z,23.53
2023-04-06T19:25:10.508Z,21.50
2023-04-06T19:27:38.398Z,19.00
2023-04-06T19:30:10.384Z,17.70
2023-04-06T19:32:38.576Z,18.10
2023-04-06T19:35:07.449Z,14.60
2023-04-06T19:37:35.991Z,15.73
2023-04-06T19:40:07.609Z,13.67
2023-04-06T19:42:35.476Z,12.53
2023-04-06T19:45:03.460Z,14.40
2023-04-06T19:47:31.385Z,13.87
2023-04-06T19:49:59.237Z,17.87
2023-04-06T19:52:27.480Z,13.37
2023-04-06T19:54:56.370Z,17.43
2023-04-06T19:57:26.031Z,13.93
2023-04-06T19:59:55.002Z,14.53
2023-04-06T20:02:23.280Z,15.90
2023-04-06T20:04:52.271Z,20.67
2023-04-06T20:07:20.110Z,18.83
2023-04-06T20:09:47.926Z,21.10
2023-04-06T20:12:15.794Z,20.53
2023-04-06T20:14:44.885Z,20.07
2023-04-06T20:17:12.671Z,21.27
2023-04-06T20:19:40.586Z,20.57
2023-04-06T20:22:08.425Z,19.10
2023-04-06T20:24:36.239Z,20.70
2023-04-06T20:27:04.159Z,23.17
2023-04-06T20:29:34.848Z,23.33
2023-04-06T20:32:04.057Z,19.67
2023-04-06T20:34:32.002Z,15.47
2023-04-06T20:37:00.439Z,17.37
2023-04-06T20:39:28.509Z,15.23
2023-04-06T20:41:57.308Z,19.30
2023-04-06T20:44:26.317Z,14.10
2023-04-06T20:46:54.339Z,21.27
2023-04-06T20:49:24.064Z,17.70
2023-04-06T20:51:52.116Z,15.30
2023-04-06T20:54:20.482Z,18.20
2023-04-06T20:56:48.465Z,23.57
2023-04-06T20:59:16.434Z,20.20
2023-04-06T21:01:44.624Z,28.03
2023-04-06T21:04:12.544Z,16.97
2023-04-06T21:06:42.061Z,17.53
2023-04-06T21:09:10.216Z,13.30
2023-04-06T21:11:38.823Z,12.97
2023-04-06T21:14:06.653Z,15.73
2023-04-06T21:16:34.595Z,12.77
2023-04-06T21:19:02.452Z,13.90
2023-04-06T21:21:30.333Z,14.50
2023-04-06T21:24:00.200Z,11.50
2023-04-06T21:26:27.978Z,14.93
2023-04-06T21:28:55.921Z,12.53
2023-04-06T21:31:23.864Z,14.60
2023-04-06T21:33:51.782Z,15.50
2023-04-06T21:36:19.777Z,16.10
2023-04-06T21:38:47.838Z,13.13
2023-04-06T21:41:17.080Z,13.53
2023-04-06T21:43:45.036Z,14.30
2023-04-06T21:46:12.895Z,17.53
2023-04-06T21:48:40.760Z,17.37
2023-04-06T21:51:08.474Z,21.73
2023-04-06T21:53:36.335Z,14.57
2023-04-06T21:56:04.226Z,15.10
2023-04-06T21:58:33.589Z,14.27
2023-04-06T22:01:01.674Z,21.80
2023-04-06T22:03:29.765Z,15.50
2023-04-06T22:05:57.690Z,17.60
2023-04-06T22:08:33.326Z,11.57
2023-04-06T22:11:01.740Z,16.50
2023-04-06T22:13:30.037Z,15.17
2023-04-06T22:15:59.240Z,13.40
2023-04-06T22:18:27.245Z,13.53
2023-04-06T22:20:55.448Z,12.57
2023-04-06T22:23:23.311Z,12.20
2023-04-06T22:25:51.355Z,9.07
2023-04-06T22:28:19.228Z,11.07
2023-04-06T22:30:47.084Z,12.53
2023-04-06T22:33:16.311Z,12.37
2023-04-06T22:35:44.176Z,9.77
2023-04-06T22:38:12.015Z,12.03
2023-04-06T22:40:42.328Z,13.23
2023-04-06T22:43:13.249Z,16.10
2023-04-06T22:45:43.225Z,11.33
2023-04-06T22:48:11.218Z,10.50
2023-04-06T22:50:40.590Z,9.40
2023-04-06T22:53:08.524Z,15.20
2023-04-06T22:55:36.610Z,12.90
2023-04-06T23:00:55.129Z,10.57
2023-04-06T23:03:23.245Z,8.23
2023-04-06T23:05:52.642Z,12.97
2023-04-06T23:08:20.482Z,13.17
2023-04-06T23:10:48.262Z,10.73
2023-04-06T23:13:16.321Z,10.53
2023-04-06T23:15:44.115Z,8.40
2023-04-06T23:18:11.932Z,12.63
2023-04-06T23:20:40.952Z,13.47
2023-04-06T23:23:10.410Z,11.50
2023-04-06T23:25:38.226Z,14.27
2023-04-06T23:28:06.208Z,10.10
2023-04-06T23:30:34.060Z,9.23
2023-04-06T23:33:02.019Z,10.53
2023-04-06T23:35:29.911Z,7.10
2023-04-06T23:37:59.202Z,8.50
2023-04-06T23:40:28.380Z,8.80
2023-04-06T23:42:56.187Z,9.03
2023-04-06T23:45:24.212Z,8.53
2023-04-06T23:47:52.082Z,8.57
2023-04-06T23:50:20.022Z,7.37
2023-04-06T23:52:47.839Z,8.70
2023-04-06T23:55:15.767Z,11.30
2023-04-06T23:57:44.930Z,7.43
